Plainville, IL

2:39 AM CST on March 04, 2015 (GMT -0600)
Quincy Regional-Baldwin | Change Station
CLOSE
Current Station
Airport
Location: Quincy,
Elevation: 768 ft
Nearby Weather Stations

Elev 768 ft 39.94 °N, 91.19 °W | Updated 45 minutes ago

Partly Cloudy
Partly Cloudy
24 °F
Feels Like 11 °F
N
17
Wind Variable Wind from NNW

Today
High -- | Low -- °F
--% Chance of Precip.
Yesterday
High -- | Low -- °F
Precip. -- in
6:33 AM 5:59 PM
Waxing Gibbous, 98% visible
Pressure 30.06 in
Visibility 10.0 miles
Clouds Clear
Windchill 11 °F
Dew Point 15 °F
Humidity 69%
Rainfall 0.00 in
Snow Depth Not available.
UV 0 out of 12
Pollen .60 out of 12
Air Quality Not available.
Flu Activity Not available.
METAR KUIN 040754Z AUTO 34015KT 10SM CLR M04/M09 A3003 RMK AO2 SLP177 T10441094

More Conditions Fewer Conditions

Pressure 30.06 in
Visibility 10.0 miles
Clouds Clear
Windchill 11 °F
Dew Point 15 °F
Humidity 69%
Rainfall 0.00 in
Snow Depth Not available.
UV 0 out of 12
Pollen .60 out of 12
Air Quality Not available.
Flu Activity Not available.
METAR KUIN 040754Z AUTO 34015KT 10SM CLR M04/M09 A3003 RMK AO2 SLP177 T10441094

More Conditions Fewer Conditions

10-Day Weather Forecast

Almanac

Astronomy

Mar. 04, 2015 Rise Set
Actual Time
Civil Twilight
Nautical Twilight
Astronomical Twilight
Moon
Length of Visible Light
Length of Day
Tomorrow will be .
, % of the Moon is Illuminated

Today's Extremes

State Highs State Lows

Community

WunderPhotos

Upload Photos

1,802,416 photos uploaded!

WunderBlogs® & News

Nearby

Air Quality

  Air Quality AQ Index Pollutant
Not available.

Snow Depth

Station Depth Elevation

Earthquake Activity

City Distance Mag. Time & Date
Minimum magnitude displayed is 2.5.

Coastal Water Temperatures

Place Temperature

Nearby Weather Stations